createdAt,value
2023-04-09T00:00:50.667Z,99.90
2023-04-09T00:03:18.461Z,99.90
2023-04-09T00:05:46.204Z,99.90
2023-04-09T00:08:13.879Z,99.90
2023-04-09T00:10:41.805Z,99.90
2023-04-09T00:13:09.489Z,99.90
2023-04-09T00:15:37.738Z,99.90
2023-04-09T00:18:05.737Z,99.90
2023-04-09T00:20:33.435Z,99.90
2023-04-09T00:23:01.506Z,99.90
2023-04-09T00:25:29.183Z,99.90
2023-04-09T00:27:57.384Z,99.90
2023-04-09T00:30:25.313Z,99.90
2023-04-09T00:32:53.103Z,99.90
2023-04-09T00:35:20.788Z,99.90
2023-04-09T00:37:48.646Z,99.90
2023-04-09T00:40:17.603Z,99.90
2023-04-09T00:42:45.786Z,99.90
2023-04-09T00:45:13.632Z,99.90
2023-04-09T00:47:43.228Z,99.90
2023-04-09T00:50:11.159Z,99.90
2023-04-09T00:52:39.063Z,99.90
2023-04-09T00:55:07.824Z,99.90
2023-04-09T00:57:35.897Z,99.90
2023-04-09T01:00:04.699Z,99.90
2023-04-09T01:02:32.514Z,99.90
2023-04-09T01:05:00.416Z,99.90
2023-04-09T01:07:31.262Z,99.90
2023-04-09T01:10:17.580Z,99.90
2023-04-09T01:13:10.640Z,99.90
2023-04-09T01:15:44.430Z,99.90
2023-04-09T01:18:40.263Z,99.90
2023-04-09T01:21:19.831Z,99.90
2023-04-09T01:23:56.669Z,99.90
2023-04-09T01:26:44.228Z,99.90
2023-04-09T01:29:12.572Z,99.90
2023-04-09T01:31:43.266Z,99.90
2023-04-09T01:34:11.772Z,99.90
2023-04-09T01:36:40.833Z,99.90
2023-04-09T01:39:08.772Z,99.90
2023-04-09T01:41:37.999Z,99.90
2023-04-09T01:44:07.967Z,99.90
2023-04-09T01:46:37.878Z,99.90
2023-04-09T01:49:06.078Z,99.90
2023-04-09T01:51:34.455Z,99.90
2023-04-09T01:54:03.967Z,99.90
2023-04-09T01:56:45.534Z,99.90
2023-04-09T01:59:13.528Z,99.90
2023-04-09T02:01:51.833Z,99.90
2023-04-09T02:04:37.099Z,99.90
2023-04-09T02:07:25.882Z,99.90
2023-04-09T02:09:54.711Z,99.90
2023-04-09T02:12:23.287Z,99.90
2023-04-09T02:14:52.558Z,99.90
2023-04-09T02:17:20.441Z,99.90
2023-04-09T02:19:48.813Z,99.90
2023-04-09T02:22:17.415Z,99.90
2023-04-09T02:24:46.902Z,99.90
2023-04-09T02:27:14.641Z,99.90
2023-04-09T02:29:42.428Z,99.90
2023-04-09T02:32:10.092Z,99.90
2023-04-09T02:34:37.811Z,99.90
2023-04-09T02:37:05.676Z,99.90
2023-04-09T02:39:33.733Z,99.90
2023-04-09T02:42:01.565Z,99.90
2023-04-09T02:44:29.295Z,99.90
2023-04-09T02:46:57.790Z,99.90
2023-04-09T02:49:25.610Z,99.90
2023-04-09T02:51:53.288Z,99.90
2023-04-09T02:54:20.962Z,99.90
2023-04-09T02:56:48.661Z,99.90
2023-04-09T02:59:16.430Z,99.90
2023-04-09T03:01:44.275Z,99.90
2023-04-09T03:04:12.207Z,99.90
2023-04-09T03:06:39.971Z,99.90
2023-04-09T03:09:07.633Z,99.90
2023-04-09T03:11:35.608Z,99.90
2023-04-09T03:14:04.541Z,99.90
2023-04-09T03:16:32.218Z,99.90
2023-04-09T03:18:59.840Z,99.90
2023-04-09T03:21:27.576Z,99.90
2023-04-09T03:23:55.386Z,99.90
2023-04-09T03:26:23.120Z,99.90
2023-04-09T03:28:51.616Z,99.90
2023-04-09T03:31:19.621Z,99.90
2023-04-09T03:33:47.949Z,99.90
2023-04-09T03:36:15.571Z,99.90
2023-04-09T03:38:56.707Z,99.90
2023-04-09T03:41:30.260Z,99.90
2023-04-09T03:44:00.885Z,99.90
2023-04-09T03:46:34.678Z,99.90
2023-04-09T03:49:02.624Z,99.90
2023-04-09T03:51:40.892Z,99.90
2023-04-09T03:54:09.010Z,99.90
2023-04-09T03:56:36.708Z,99.90
2023-04-09T03:59:08.652Z,99.90
2023-04-09T04:01:40.583Z,99.90
2023-04-09T04:04:08.458Z,99.90
2023-04-09T04:06:45.805Z,99.90
2023-04-09T04:09:46.035Z,99.90
2023-04-09T04:12:17.339Z,99.90
2023-04-09T04:15:14.725Z,99.90
2023-04-09T04:17:47.188Z,99.90
2023-04-09T04:20:36.581Z,99.90
2023-04-09T04:23:09.093Z,99.90
2023-04-09T04:25:42.612Z,99.90
2023-04-09T04:28:13.701Z,99.90
2023-04-09T04:30:43.335Z,99.90
2023-04-09T04:33:11.657Z,99.90
2023-04-09T04:35:47.989Z,99.90
2023-04-09T04:38:33.681Z,99.90
2023-04-09T04:41:04.828Z,99.90
2023-04-09T04:43:36.158Z,99.90
2023-04-09T04:46:03.911Z,99.90
2023-04-09T04:48:32.547Z,99.90
2023-04-09T04:51:02.024Z,99.90
2023-04-09T04:53:40.674Z,99.90
2023-04-09T04:56:15.767Z,99.90
2023-04-09T04:58:56.480Z,99.90
2023-04-09T05:01:24.645Z,99.90
2023-04-09T05:03:52.864Z,99.90
2023-04-09T05:06:29.793Z,99.90
2023-04-09T05:08:58.923Z,99.90
2023-04-09T05:11:29.093Z,99.90
2023-04-09T05:13:56.999Z,99.90
2023-04-09T05:16:24.863Z,99.90
2023-04-09T05:19:01.520Z,99.90
2023-04-09T05:21:29.272Z,99.90
2023-04-09T05:23:58.368Z,99.90
2023-04-09T05:26:27.334Z,99.90
2023-04-09T05:28:58.407Z,99.90
2023-04-09T05:31:26.798Z,99.90
2023-04-09T05:34:01.798Z,99.90
2023-04-09T05:36:37.463Z,99.90
2023-04-09T05:39:05.287Z,99.90
2023-04-09T05:41:33.690Z,99.90
2023-04-09T05:44:17.145Z,99.90
2023-04-09T05:46:45.085Z,99.90
2023-04-09T05:49:16.324Z,99.90
2023-04-09T05:51:46.722Z,99.90
2023-04-09T05:54:18.265Z,99.90
2023-04-09T05:56:46.000Z,99.90
2023-04-09T05:59:13.660Z,99.90
2023-04-09T06:01:41.462Z,99.90
2023-04-09T06:04:09.199Z,99.90
2023-04-09T06:06:40.248Z,99.90
2023-04-09T06:09:08.187Z,99.90
2023-04-09T06:11:38.748Z,99.90
2023-04-09T06:14:06.993Z,99.90
2023-04-09T06:16:35.277Z,99.90
2023-04-09T06:19:03.027Z,99.90
2023-04-09T06:21:31.852Z,99.90
2023-04-09T06:23:59.713Z,99.90
2023-04-09T06:26:30.085Z,99.90
2023-04-09T06:28:58.028Z,99.90
2023-04-09T06:31:25.937Z,99.90
2023-04-09T06:33:54.136Z,99.90
2023-04-09T06:36:27.466Z,99.90
2023-04-09T06:38:55.486Z,99.90
2023-04-09T06:41:23.935Z,99.90
2023-04-09T06:43:54.268Z,99.90
2023-04-09T06:46:23.991Z,99.90
2023-04-09T06:48:51.841Z,99.90
2023-04-09T06:51:19.656Z,99.90
2023-04-09T06:53:48.463Z,99.90
2023-04-09T06:56:16.333Z,99.90
2023-04-09T06:58:44.037Z,99.90
2023-04-09T07:01:13.173Z,99.90
2023-04-09T07:03:41.392Z,99.90
2023-04-09T07:06:09.933Z,99.90
2023-04-09T07:08:37.572Z,99.90
2023-04-09T07:11:05.270Z,99.90
2023-04-09T07:13:33.465Z,99.90
2023-04-09T07:16:01.286Z,99.90
2023-04-09T07:18:29.260Z,99.90
2023-04-09T07:20:57.072Z,99.90
2023-04-09T07:23:24.724Z,99.90
2023-04-09T07:25:52.462Z,99.90
2023-04-09T07:28:20.164Z,99.90
2023-04-09T07:30:48.190Z,99.90
2023-04-09T07:33:16.108Z,99.90
2023-04-09T07:35:43.849Z,99.90
2023-04-09T07:38:11.837Z,99.90
2023-04-09T07:40:39.604Z,99.90
2023-04-09T07:43:07.560Z,99.90
2023-04-09T07:45:35.705Z,99.90
2023-04-09T07:48:03.399Z,99.90
2023-04-09T07:50:31.105Z,99.90
2023-04-09T07:52:58.879Z,99.90
2023-04-09T07:55:26.521Z,99.90
2023-04-09T07:57:55.362Z,99.90
2023-04-09T08:00:23.586Z,99.90
2023-04-09T08:02:51.903Z,99.90
2023-04-09T08:05:20.298Z,99.90
2023-04-09T08:07:48.471Z,99.90
2023-04-09T08:10:16.995Z,99.90
2023-04-09T08:12:44.994Z,99.90
2023-04-09T08:15:12.579Z,99.90
2023-04-09T08:17:40.593Z,99.90
2023-04-09T08:20:10.599Z,99.90
2023-04-09T08:22:38.325Z,99.90
2023-04-09T08:25:06.493Z,99.90
2023-04-09T08:27:34.818Z,99.90
2023-04-09T08:30:03.892Z,99.90
2023-04-09T08:32:31.703Z,99.90
2023-04-09T08:34:59.319Z,99.90
2023-04-09T08:37:27.103Z,99.90
2023-04-09T08:39:54.972Z,99.90
2023-04-09T08:42:25.437Z,99.90
2023-04-09T08:44:53.506Z,99.90
2023-04-09T08:47:21.819Z,99.90
2023-04-09T08:49:50.732Z,99.90
2023-04-09T08:52:22.116Z,99.90
2023-04-09T08:54:51.556Z,99.90
2023-04-09T08:57:19.217Z,99.90
2023-04-09T08:59:46.855Z,99.90
2023-04-09T09:02:14.964Z,99.90
2023-04-09T09:04:47.526Z,99.90
2023-04-09T09:07:16.584Z,99.90
2023-04-09T09:09:58.835Z,99.90
2023-04-09T09:12:33.612Z,99.90
2023-04-09T09:15:06.296Z,99.90
2023-04-09T09:17:53.826Z,99.90
2023-04-09T09:20:22.243Z,99.90
2023-04-09T09:22:55.743Z,99.90
2023-04-09T09:25:25.073Z,99.90
2023-04-09T09:27:54.621Z,99.90
2023-04-09T09:30:27.586Z,99.90
2023-04-09T09:33:09.336Z,99.90
2023-04-09T09:35:54.667Z,99.90
2023-04-09T09:38:22.692Z,99.90
2023-04-09T09:40:50.704Z,99.90
2023-04-09T09:43:18.712Z,99.90
2023-04-09T09:45:50.312Z,99.90
2023-04-09T09:48:18.235Z,99.90
2023-04-09T09:50:48.646Z,99.90
2023-04-09T09:53:21.451Z,99.90
2023-04-09T09:55:52.967Z,99.90
2023-04-09T09:58:25.176Z,99.90
2023-04-09T10:00:53.678Z,99.90
2023-04-09T10:03:25.218Z,99.90
2023-04-09T10:05:54.074Z,99.90
2023-04-09T10:08:23.415Z,99.90
2023-04-09T10:10:53.065Z,99.90
2023-04-09T10:13:31.686Z,99.90
2023-04-09T10:16:00.276Z,99.90
2023-04-09T10:18:29.550Z,99.90
2023-04-09T10:20:59.180Z,99.90
2023-04-09T10:23:48.334Z,99.90
2023-04-09T10:26:18.104Z,99.90
2023-04-09T10:28:45.946Z,99.90
2023-04-09T10:31:14.756Z,99.90
2023-04-09T10:33:44.272Z,99.90
2023-04-09T10:36:13.165Z,99.90
2023-04-09T10:38:45.129Z,99.90
2023-04-09T10:41:27.978Z,99.90
2023-04-09T10:43:57.242Z,99.90
2023-04-09T10:46:36.925Z,99.90
2023-04-09T10:49:22.405Z,99.90
2023-04-09T10:51:53.350Z,99.90
2023-04-09T10:54:33.519Z,99.90
2023-04-09T10:57:13.873Z,99.90
2023-04-09T10:59:55.429Z,99.90
2023-04-09T11:02:40.347Z,99.90
2023-04-09T11:05:26.441Z,99.90
2023-04-09T11:07:57.565Z,99.80
2023-04-09T11:10:25.420Z,99.90
2023-04-09T11:12:54.082Z,99.90
2023-04-09T11:15:22.120Z,99.90
2023-04-09T11:17:50.554Z,99.80
2023-04-09T11:20:22.451Z,99.90
2023-04-09T11:22:52.556Z,99.90
2023-04-09T11:25:26.537Z,99.90
2023-04-09T11:27:55.281Z,99.90
2023-04-09T11:30:23.203Z,99.90
2023-04-09T11:32:51.579Z,99.90
2023-04-09T11:35:21.619Z,99.90
2023-04-09T11:37:52.359Z,99.60
2023-04-09T11:40:25.104Z,99.40
2023-04-09T11:42:55.066Z,99.90
2023-04-09T11:45:25.499Z,99.30
2023-04-09T11:47:53.907Z,99.90
2023-04-09T11:50:22.618Z,99.30
2023-04-09T11:52:50.753Z,99.90
2023-04-09T11:55:29.678Z,99.90
2023-04-09T11:58:01.469Z,99.50
2023-04-09T12:00:29.634Z,99.10
2023-04-09T12:03:03.545Z,98.90
2023-04-09T12:05:35.820Z,98.60
2023-04-09T12:08:07.098Z,99.40
2023-04-09T12:10:36.887Z,99.00
2023-04-09T12:13:10.624Z,98.40
2023-04-09T12:15:41.342Z,97.90
2023-04-09T12:18:10.925Z,97.60
2023-04-09T12:20:40.964Z,97.70
2023-04-09T12:23:10.017Z,98.40
2023-04-09T12:25:39.774Z,98.80
2023-04-09T12:28:09.130Z,97.90
2023-04-09T12:30:36.826Z,98.10
2023-04-09T12:33:05.754Z,98.60
2023-04-09T12:35:34.777Z,98.80
2023-04-09T12:38:02.592Z,97.30
2023-04-09T12:40:30.357Z,97.60
2023-04-09T12:42:58.366Z,97.70
2023-04-09T12:45:26.159Z,97.60
2023-04-09T12:47:53.844Z,98.60
2023-04-09T12:50:21.642Z,96.50
2023-04-09T12:52:49.362Z,97.50
2023-04-09T12:55:17.212Z,97.90
2023-04-09T12:57:47.356Z,98.50
2023-04-09T13:00:15.888Z,98.10
2023-04-09T13:02:43.767Z,98.10
2023-04-09T13:05:11.646Z,97.80
2023-04-09T13:07:41.498Z,97.50
2023-04-09T13:10:10.819Z,97.00
2023-04-09T13:12:38.538Z,96.60
2023-04-09T13:15:06.875Z,96.90
2023-04-09T13:17:34.896Z,96.70
2023-04-09T13:20:03.898Z,97.20
2023-04-09T13:22:31.591Z,96.70
2023-04-09T13:24:59.222Z,95.20
2023-04-09T13:27:26.936Z,94.60
2023-04-09T13:29:54.621Z,93.80
2023-04-09T13:32:23.463Z,94.30
2023-04-09T13:34:51.379Z,94.10
2023-04-09T13:37:19.042Z,93.60
2023-04-09T13:39:46.696Z,92.90
2023-04-09T13:42:14.802Z,92.70
2023-04-09T13:44:45.115Z,93.50
2023-04-09T13:47:14.214Z,93.80
2023-04-09T13:49:43.238Z,93.40
2023-04-09T13:52:11.192Z,93.60
2023-04-09T13:54:38.868Z,94.60
2023-04-09T13:57:06.612Z,94.20
2023-04-09T13:59:34.253Z,95.00
2023-04-09T14:02:02.075Z,95.90
2023-04-09T14:04:30.029Z,95.20
2023-04-09T14:06:57.967Z,93.70
2023-04-09T14:09:25.867Z,95.40
2023-04-09T14:11:55.200Z,94.70
2023-04-09T14:14:23.037Z,94.60
2023-04-09T14:16:51.082Z,93.70
2023-04-09T14:19:18.870Z,94.10
2023-04-09T14:21:46.636Z,94.40
2023-04-09T14:24:14.319Z,94.20
2023-04-09T14:26:41.974Z,94.70
2023-04-09T14:29:09.664Z,93.90
2023-04-09T14:31:37.411Z,94.10
2023-04-09T14:34:05.039Z,94.50
2023-04-09T14:36:32.831Z,94.20
2023-04-09T14:39:00.665Z,94.00
2023-04-09T14:41:28.506Z,93.90
2023-04-09T14:43:56.173Z,92.50
2023-04-09T14:46:23.817Z,92.70
2023-04-09T14:48:51.746Z,94.10
2023-04-09T14:51:19.614Z,94.00
2023-04-09T14:53:47.632Z,94.30
2023-04-09T14:56:15.500Z,94.10
2023-04-09T14:58:43.277Z,95.70
2023-04-09T15:01:11.202Z,94.50
2023-04-09T15:03:38.941Z,95.20
2023-04-09T15:06:06.910Z,94.90
2023-04-09T15:08:34.537Z,94.80
2023-04-09T15:11:02.328Z,95.10
2023-04-09T15:13:29.968Z,95.50
2023-04-09T15:15:57.709Z,94.70
2023-04-09T15:18:25.457Z,94.50
2023-04-09T15:20:53.072Z,94.50
2023-04-09T15:23:20.991Z,94.50
2023-04-09T15:25:48.626Z,94.30
2023-04-09T15:28:16.805Z,94.70
2023-04-09T15:30:44.528Z,94.60
2023-04-09T15:33:13.408Z,94.40
2023-04-09T15:35:41.089Z,94.80
2023-04-09T15:38:08.699Z,94.60
2023-04-09T15:40:36.396Z,94.60
2023-04-09T15:43:04.024Z,94.00
2023-04-09T15:45:31.698Z,94.60
2023-04-09T15:47:59.413Z,94.90
2023-04-09T15:50:27.067Z,94.90
2023-04-09T15:52:56.303Z,94.40
2023-04-09T15:55:25.353Z,94.20
2023-04-09T15:57:53.247Z,94.60
2023-04-09T16:00:21.265Z,94.80
2023-04-09T16:02:48.928Z,95.10
2023-04-09T16:05:16.720Z,95.70
2023-04-09T16:07:44.456Z,95.70
2023-04-09T16:10:12.165Z,95.90
2023-04-09T16:12:39.845Z,95.60
2023-04-09T16:15:08.217Z,95.00
2023-04-09T16:17:40.742Z,95.20
2023-04-09T16:20:09.122Z,95.80
2023-04-09T16:22:37.007Z,95.40
2023-04-09T16:25:04.809Z,96.00
2023-04-09T16:27:32.628Z,96.20
2023-04-09T16:30:00.622Z,96.60
2023-04-09T16:32:28.410Z,96.40
2023-04-09T16:35:01.256Z,96.70
2023-04-09T16:37:31.221Z,97.30
2023-04-09T16:39:59.420Z,97.50
2023-04-09T16:42:27.492Z,98.00
2023-04-09T16:44:55.196Z,97.80
2023-04-09T16:47:22.916Z,98.70
2023-04-09T16:49:50.666Z,99.50
2023-04-09T16:52:18.337Z,99.90
2023-04-09T16:54:45.988Z,99.90
2023-04-09T16:57:13.961Z,99.90
2023-04-09T16:59:42.664Z,99.90
2023-04-09T17:02:10.406Z,99.90
2023-04-09T17:04:38.353Z,99.90
2023-04-09T17:07:06.033Z,99.90
2023-04-09T17:09:33.649Z,99.90
2023-04-09T17:12:03.967Z,99.90
2023-04-09T17:14:34.874Z,99.90
2023-04-09T17:17:02.762Z,99.90
2023-04-09T17:19:30.677Z,99.90
2023-04-09T17:21:59.305Z,99.90
2023-04-09T17:24:27.121Z,99.90
2023-04-09T17:26:55.072Z,99.90
2023-04-09T17:29:22.899Z,99.90
2023-04-09T17:31:53.398Z,99.90
2023-04-09T17:34:21.344Z,99.90
2023-04-09T17:36:50.598Z,99.90
2023-04-09T17:39:18.390Z,99.90
2023-04-09T17:41:46.073Z,99.90
2023-04-09T17:44:13.752Z,99.90
2023-04-09T17:46:41.430Z,99.90
2023-04-09T17:49:09.789Z,99.90
2023-04-09T17:51:37.596Z,99.90
2023-04-09T17:54:05.511Z,99.90
2023-04-09T17:56:35.527Z,99.90
2023-04-09T17:59:03.241Z,99.90
2023-04-09T18:01:31.323Z,99.90
2023-04-09T18:04:00.273Z,99.90
2023-04-09T18:06:28.420Z,99.90
2023-04-09T18:08:56.083Z,99.90
2023-04-09T18:11:24.254Z,99.90
2023-04-09T18:13:51.946Z,99.90
2023-04-09T18:16:20.993Z,99.90
2023-04-09T18:18:48.907Z,99.90
2023-04-09T18:21:16.638Z,99.90
2023-04-09T18:23:44.371Z,99.90
2023-04-09T18:26:12.014Z,99.90
2023-04-09T18:28:39.677Z,99.90
2023-04-09T18:31:07.460Z,99.90
2023-04-09T18:33:35.135Z,99.90
2023-04-09T18:36:03.255Z,99.90
2023-04-09T18:38:31.032Z,99.90
2023-04-09T18:41:02.014Z,99.90
2023-04-09T18:43:33.097Z,99.90
2023-04-09T18:46:01.901Z,99.90
2023-04-09T18:48:29.613Z,99.90
2023-04-09T18:50:58.336Z,99.90
2023-04-09T18:53:27.131Z,99.90
2023-04-09T18:55:55.514Z,99.90
2023-04-09T18:58:24.669Z,99.90
2023-04-09T19:00:53.376Z,99.90
2023-04-09T19:03:22.265Z,99.90
2023-04-09T19:05:52.638Z,99.90
2023-04-09T19:08:21.460Z,99.90
2023-04-09T19:10:49.885Z,99.90
2023-04-09T19:13:18.387Z,99.90
2023-04-09T19:15:46.087Z,99.90
2023-04-09T19:18:13.994Z,99.90
2023-04-09T19:20:41.663Z,99.90
2023-04-09T19:23:09.976Z,99.90
2023-04-09T19:25:37.700Z,99.90
2023-04-09T19:28:05.368Z,99.90
2023-04-09T19:30:33.014Z,99.90
2023-04-09T19:33:01.188Z,99.90
2023-04-09T19:35:29.043Z,99.90
2023-04-09T19:37:56.870Z,99.90
2023-04-09T19:40:24.743Z,99.90
2023-04-09T19:42:53.224Z,99.90
2023-04-09T19:45:20.829Z,99.90
2023-04-09T19:47:48.535Z,99.90
2023-04-09T19:50:16.555Z,99.90
2023-04-09T19:52:44.189Z,99.90
2023-04-09T19:55:11.825Z,99.90
2023-04-09T19:57:40.893Z,99.90
2023-04-09T20:00:09.456Z,99.90
2023-04-09T20:02:41.779Z,99.90
2023-04-09T20:05:10.866Z,99.90
2023-04-09T20:07:38.842Z,99.90
2023-04-09T20:10:07.728Z,99.90
2023-04-09T20:12:35.526Z,99.90
2023-04-09T20:15:03.858Z,99.90
2023-04-09T20:17:32.357Z,99.90
2023-04-09T20:20:00.153Z,99.90
2023-04-09T20:22:29.116Z,99.90
2023-04-09T20:24:56.803Z,99.90
2023-04-09T20:27:24.803Z,99.90
2023-04-09T20:29:53.047Z,99.90
2023-04-09T20:32:21.252Z,99.90
2023-04-09T20:34:49.704Z,99.90
2023-04-09T20:37:17.789Z,99.90
2023-04-09T20:39:45.690Z,99.90
2023-04-09T20:42:16.129Z,99.90
2023-04-09T20:44:45.117Z,99.90
2023-04-09T20:47:13.213Z,99.90
2023-04-09T20:49:40.937Z,99.90
2023-04-09T20:52:09.574Z,99.90
2023-04-09T20:54:37.414Z,99.90
2023-04-09T20:57:05.871Z,99.90
2023-04-09T20:59:34.085Z,99.90
2023-04-09T21:02:02.050Z,99.90
2023-04-09T21:04:30.488Z,99.90
2023-04-09T21:06:58.204Z,99.90
2023-04-09T21:09:26.266Z,99.90
2023-04-09T21:11:53.888Z,99.90
2023-04-09T21:14:21.589Z,99.90
2023-04-09T21:16:49.421Z,99.90
2023-04-09T21:19:17.077Z,99.90
2023-04-09T21:21:44.771Z,99.90
2023-04-09T21:24:12.457Z,99.90
2023-04-09T21:26:50.813Z,99.90
2023-04-09T21:29:23.609Z,99.90
2023-04-09T21:31:51.794Z,99.90
2023-04-09T21:34:19.555Z,99.90
2023-04-09T21:36:47.535Z,99.90
2023-04-09T21:39:15.851Z,99.90
2023-04-09T21:41:43.975Z,99.90
2023-04-09T21:44:12.232Z,99.90
2023-04-09T21:46:41.021Z,99.90
2023-04-09T21:49:08.834Z,99.90
2023-04-09T21:51:36.740Z,99.90
2023-04-09T21:54:09.160Z,99.90
2023-04-09T21:56:40.311Z,99.90
2023-04-09T21:59:09.245Z,99.90
2023-04-09T22:01:37.128Z,99.90
2023-04-09T22:04:05.180Z,99.90
2023-04-09T22:06:33.058Z,99.90
2023-04-09T22:09:00.913Z,99.90
2023-04-09T22:11:28.960Z,99.90
2023-04-09T22:13:57.672Z,99.90
2023-04-09T22:16:27.012Z,99.90
2023-04-09T22:18:55.292Z,99.90
2023-04-09T22:21:23.259Z,99.90
2023-04-09T22:23:51.143Z,99.90
2023-04-09T22:26:19.101Z,99.90
2023-04-09T22:28:46.800Z,99.90
2023-04-09T22:31:14.546Z,99.90
2023-04-09T22:33:42.345Z,99.90
2023-04-09T22:36:09.991Z,99.90
2023-04-09T22:38:37.609Z,99.90
2023-04-09T22:41:05.783Z,99.90
2023-04-09T22:43:33.433Z,99.90
2023-04-09T22:46:02.202Z,99.90
2023-04-09T22:48:30.477Z,99.90
2023-04-09T22:50:58.751Z,99.90
2023-04-09T22:53:26.502Z,99.90
2023-04-09T22:55:55.030Z,99.90
2023-04-09T22:58:22.909Z,99.90
2023-04-09T23:00:50.839Z,99.90
2023-04-09T23:03:18.806Z,99.90
2023-04-09T23:05:46.596Z,99.90
2023-04-09T23:08:14.252Z,99.90
2023-04-09T23:10:42.022Z,99.90
2023-04-09T23:13:14.071Z,99.90
2023-04-09T23:15:41.792Z,99.90
2023-04-09T23:18:10.289Z,99.90
2023-04-09T23:20:38.002Z,99.90
2023-04-09T23:23:05.749Z,99.90
2023-04-09T23:25:33.345Z,99.90
2023-04-09T23:28:01.205Z,99.90
2023-04-09T23:30:28.891Z,99.90
2023-04-09T23:32:57.616Z,99.90
2023-04-09T23:35:25.477Z,99.90
2023-04-09T23:37:53.092Z,99.90
2023-04-09T23:40:21.456Z,99.90
2023-04-09T23:42:50.353Z,99.90
2023-04-09T23:45:18.224Z,99.90
2023-04-09T23:47:46.127Z,99.90
2023-04-09T23:50:13.941Z,99.90
2023-04-09T23:52:47.259Z,99.90
2023-04-09T23:55:15.664Z,99.90
2023-04-09T23:57:43.842Z,99.90
